createdAt,value
2023-08-29T00:00:23.950Z,19.71
2023-08-29T00:02:53.977Z,19.77
2023-08-29T00:05:22.490Z,19.74
2023-08-29T00:07:50.831Z,19.77
2023-08-29T00:10:19.234Z,19.76
2023-08-29T00:12:47.560Z,19.67
2023-08-29T00:15:16.035Z,19.61
2023-08-29T00:17:45.191Z,19.65
2023-08-29T00:20:13.722Z,19.57
2023-08-29T00:22:42.144Z,19.61
2023-08-29T00:25:10.677Z,19.40
2023-08-29T00:27:39.049Z,19.39
2023-08-29T00:30:07.905Z,19.56
2023-08-29T00:32:36.283Z,19.65
2023-08-29T00:35:04.844Z,19.45
2023-08-29T00:37:34.357Z,19.65
2023-08-29T00:40:03.090Z,19.73
2023-08-29T00:42:31.540Z,19.61
2023-08-29T00:44:59.922Z,19.06
2023-08-29T00:47:28.786Z,18.78
2023-08-29T00:49:57.304Z,18.93
2023-08-29T00:52:25.806Z,18.88
2023-08-29T00:54:54.101Z,18.91
2023-08-29T00:57:22.595Z,19.16
2023-08-29T00:59:51.079Z,19.31
2023-08-29T01:02:20.346Z,19.40
2023-08-29T01:04:48.755Z,19.36
2023-08-29T01:07:19.925Z,19.23
2023-08-29T01:09:48.335Z,19.10
2023-08-29T01:12:17.739Z,19.15
2023-08-29T01:14:58.453Z,19.11
2023-08-29T01:17:30.064Z,18.77
2023-08-29T01:19:59.464Z,18.93
2023-08-29T01:22:38.340Z,18.58
2023-08-29T01:25:30.103Z,18.38
2023-08-29T01:27:58.465Z,18.34
2023-08-29T01:30:27.185Z,18.49
2023-08-29T01:32:56.059Z,18.38
2023-08-29T01:35:24.485Z,18.31
2023-08-29T01:37:52.870Z,18.02
2023-08-29T01:40:21.380Z,18.20
2023-08-29T01:42:49.718Z,18.35
2023-08-29T01:45:18.054Z,18.50
2023-08-29T01:47:46.545Z,18.68
2023-08-29T01:50:15.332Z,18.88
2023-08-29T01:52:43.678Z,18.91
2023-08-29T01:55:12.127Z,18.88
2023-08-29T01:57:41.769Z,18.86
2023-08-29T02:00:10.798Z,18.81
2023-08-29T02:02:39.714Z,18.80
2023-08-29T02:05:08.554Z,18.85
2023-08-29T02:07:37.022Z,18.87
2023-08-29T02:10:05.678Z,18.70
2023-08-29T02:12:34.015Z,18.64
2023-08-29T02:15:03.629Z,18.60
2023-08-29T02:17:32.051Z,18.64
2023-08-29T02:20:00.711Z,18.71
2023-08-29T02:22:30.515Z,18.79
2023-08-29T02:25:01.014Z,18.80
2023-08-29T02:27:29.418Z,18.80
2023-08-29T02:29:58.812Z,18.80
2023-08-29T02:32:27.270Z,18.87
2023-08-29T02:34:56.185Z,18.93
2023-08-29T02:37:25.454Z,18.96
2023-08-29T02:39:53.876Z,18.91
2023-08-29T02:42:22.263Z,18.85
2023-08-29T02:44:50.721Z,18.92
2023-08-29T02:47:19.478Z,18.92
2023-08-29T02:49:47.811Z,18.97
2023-08-29T02:52:16.168Z,19.03
2023-08-29T02:54:44.560Z,18.95
2023-08-29T02:57:12.927Z,18.90
2023-08-29T02:59:41.291Z,18.78
2023-08-29T03:02:09.685Z,18.64
2023-08-29T03:04:38.065Z,18.62
2023-08-29T03:07:06.605Z,18.66
2023-08-29T03:09:35.208Z,18.75
2023-08-29T03:12:03.650Z,18.64
2023-08-29T03:14:32.047Z,18.14
2023-08-29T03:17:00.426Z,18.23
2023-08-29T03:19:28.935Z,18.29
2023-08-29T03:21:57.251Z,18.18
2023-08-29T03:24:25.584Z,18.33
2023-08-29T03:26:53.910Z,18.40
2023-08-29T03:29:22.313Z,18.37
2023-08-29T03:31:50.673Z,18.38
2023-08-29T03:34:19.028Z,18.39
2023-08-29T03:36:47.366Z,18.41
2023-08-29T03:39:15.755Z,18.42
2023-08-29T03:41:44.183Z,18.34
2023-08-29T03:44:13.375Z,18.37
2023-08-29T03:46:41.743Z,18.41
2023-08-29T03:49:10.088Z,18.42
2023-08-29T03:51:38.438Z,18.20
2023-08-29T03:54:06.817Z,18.06
2023-08-29T03:56:35.176Z,17.76
2023-08-29T03:59:05.186Z,17.57
2023-08-29T04:01:33.624Z,17.90
2023-08-29T04:04:04.018Z,18.09
2023-08-29T04:06:35.670Z,18.25
2023-08-29T04:09:04.805Z,18.15
2023-08-29T04:11:33.166Z,17.98
2023-08-29T04:14:02.217Z,17.71
2023-08-29T04:16:30.606Z,17.54
2023-08-29T04:18:59.058Z,17.47
2023-08-29T04:21:27.400Z,17.58
2023-08-29T04:23:55.991Z,17.69
2023-08-29T04:26:24.362Z,17.70
2023-08-29T04:28:52.780Z,17.41
2023-08-29T04:31:22.086Z,17.00
2023-08-29T04:33:50.546Z,17.01
2023-08-29T04:36:18.912Z,17.41
2023-08-29T04:38:50.307Z,17.44
2023-08-29T04:41:18.625Z,17.42
2023-08-29T04:43:46.971Z,17.41
2023-08-29T04:46:15.403Z,17.22
2023-08-29T04:48:43.916Z,17.21
2023-08-29T04:51:12.235Z,17.29
2023-08-29T04:53:41.075Z,17.38
2023-08-29T04:56:09.951Z,17.43
2023-08-29T04:58:38.318Z,17.31
2023-08-29T05:01:07.784Z,17.11
2023-08-29T05:03:36.232Z,17.01
2023-08-29T05:06:04.678Z,16.95
2023-08-29T05:08:35.897Z,16.68
2023-08-29T05:11:04.736Z,16.67
2023-08-29T05:13:33.211Z,16.87
2023-08-29T05:16:01.675Z,17.19
2023-08-29T05:18:30.143Z,17.42
2023-08-29T05:20:58.513Z,17.67
2023-08-29T05:23:26.873Z,17.61
2023-08-29T05:25:55.306Z,17.37
2023-08-29T05:28:23.856Z,17.51
2023-08-29T05:30:52.437Z,17.62
2023-08-29T05:33:20.765Z,17.79
2023-08-29T05:35:49.199Z,17.87
2023-08-29T05:38:17.572Z,18.00
2023-08-29T05:40:45.939Z,18.08
2023-08-29T05:43:14.777Z,18.18
2023-08-29T05:45:43.434Z,18.27
2023-08-29T05:48:11.847Z,18.26
2023-08-29T05:50:43.643Z,18.20
2023-08-29T05:53:11.981Z,18.21
2023-08-29T05:55:40.345Z,18.21
2023-08-29T05:58:09.200Z,18.36
2023-08-29T06:00:38.747Z,18.34
2023-08-29T06:03:08.284Z,18.38
2023-08-29T06:05:37.797Z,18.27
2023-08-29T06:08:17.360Z,18.29
2023-08-29T06:10:47.605Z,18.26
2023-08-29T06:13:16.039Z,18.00
2023-08-29T06:15:44.497Z,17.86
2023-08-29T06:18:12.909Z,18.09
2023-08-29T06:20:41.400Z,18.16
2023-08-29T06:23:09.704Z,18.08
2023-08-29T06:25:38.038Z,18.35
2023-08-29T06:28:06.793Z,18.38
2023-08-29T06:30:36.050Z,18.26
2023-08-29T06:33:07.493Z,18.51
2023-08-29T06:35:39.544Z,18.52
2023-08-29T06:38:08.755Z,18.36
2023-08-29T06:40:37.769Z,18.49
2023-08-29T06:43:06.189Z,18.77
2023-08-29T06:45:34.563Z,18.83
2023-08-29T06:48:03.163Z,18.96
2023-08-29T06:50:31.620Z,19.08
2023-08-29T06:52:59.963Z,19.26
2023-08-29T06:55:28.874Z,19.31
2023-08-29T06:57:57.232Z,19.33
2023-08-29T07:00:25.651Z,19.53
2023-08-29T07:02:54.203Z,19.63
2023-08-29T07:05:22.780Z,19.71
2023-08-29T07:07:51.257Z,19.91
2023-08-29T07:10:19.868Z,19.86
2023-08-29T07:12:49.784Z,19.82
2023-08-29T07:15:18.306Z,19.77
2023-08-29T07:17:46.844Z,19.67
2023-08-29T07:20:16.921Z,19.60
2023-08-29T07:22:45.281Z,19.40
2023-08-29T07:25:14.168Z,19.94
2023-08-29T07:27:42.544Z,20.29
2023-08-29T07:30:15.797Z,20.53
2023-08-29T07:32:45.288Z,20.05
2023-08-29T07:35:15.229Z,20.41
2023-08-29T07:37:43.761Z,19.93
2023-08-29T07:40:12.172Z,20.17
2023-08-29T07:42:40.661Z,20.18
2023-08-29T07:45:09.707Z,20.54
2023-08-29T07:47:38.136Z,20.89
2023-08-29T07:50:06.708Z,20.62
2023-08-29T07:52:35.910Z,20.57
2023-08-29T07:55:05.665Z,20.99
2023-08-29T07:57:34.039Z,20.98
2023-08-29T08:00:02.492Z,21.30
2023-08-29T08:02:30.926Z,21.48
2023-08-29T08:04:59.320Z,21.60
2023-08-29T08:07:27.747Z,21.62
2023-08-29T08:09:56.085Z,21.24
2023-08-29T08:12:24.507Z,21.54
2023-08-29T08:14:54.199Z,21.58
2023-08-29T08:17:22.665Z,21.71
2023-08-29T08:19:51.135Z,21.06
2023-08-29T08:22:19.655Z,20.96
2023-08-29T08:24:48.108Z,21.15
2023-08-29T08:27:17.828Z,21.35
2023-08-29T08:29:46.306Z,21.73
2023-08-29T08:32:14.971Z,21.67
2023-08-29T08:34:43.351Z,21.64
2023-08-29T08:37:11.683Z,21.84
2023-08-29T08:39:40.086Z,22.02
2023-08-29T08:42:10.686Z,22.22
2023-08-29T08:44:39.705Z,22.04
2023-08-29T08:47:08.397Z,22.02
2023-08-29T08:49:36.897Z,22.23
2023-08-29T08:52:06.401Z,22.08
2023-08-29T08:54:34.969Z,21.60
2023-08-29T08:57:03.761Z,21.82
2023-08-29T08:59:32.087Z,22.23
2023-08-29T09:02:00.450Z,21.93
2023-08-29T09:04:28.911Z,22.05
2023-08-29T09:06:57.348Z,22.01
2023-08-29T09:09:26.997Z,21.88
2023-08-29T09:11:56.615Z,22.15
2023-08-29T09:14:25.625Z,21.85
2023-08-29T09:16:54.856Z,22.40
2023-08-29T09:19:24.084Z,22.52
2023-08-29T09:21:52.733Z,22.22
2023-08-29T09:24:31.990Z,21.90
2023-08-29T09:27:01.081Z,22.28
2023-08-29T09:29:30.923Z,22.19
2023-08-29T09:31:59.525Z,21.82
2023-08-29T09:34:29.079Z,21.79
2023-08-29T09:36:58.124Z,22.06
2023-08-29T09:39:27.377Z,21.91
2023-08-29T09:42:02.658Z,22.23
2023-08-29T09:44:35.102Z,22.12
2023-08-29T09:47:03.992Z,22.45
2023-08-29T09:49:42.299Z,22.75
2023-08-29T09:52:11.293Z,22.67
2023-08-29T09:54:48.138Z,22.91
2023-08-29T09:57:19.426Z,23.33
2023-08-29T09:59:47.992Z,23.20
2023-08-29T10:02:19.508Z,22.73
2023-08-29T10:05:09.909Z,22.60
2023-08-29T10:07:42.950Z,22.66
2023-08-29T10:10:11.795Z,22.88
2023-08-29T10:12:40.540Z,21.67
2023-08-29T10:15:09.535Z,20.80
2023-08-29T10:17:38.413Z,20.93
2023-08-29T10:20:13.451Z,21.02
2023-08-29T10:22:46.482Z,21.97
2023-08-29T10:25:15.088Z,22.62
2023-08-29T10:27:43.756Z,22.69
2023-08-29T10:30:12.568Z,21.60
2023-08-29T10:32:42.380Z,21.79
2023-08-29T10:35:18.712Z,21.99
2023-08-29T10:37:50.433Z,22.68
2023-08-29T10:40:19.529Z,23.22
2023-08-29T10:42:55.680Z,23.34
2023-08-29T10:45:42.767Z,23.45
2023-08-29T10:48:16.163Z,22.54
2023-08-29T10:51:06.263Z,22.53
2023-08-29T10:53:58.576Z,23.08
2023-08-29T10:56:39.478Z,22.68
2023-08-29T10:59:27.936Z,22.94
2023-08-29T11:02:14.811Z,23.38
2023-08-29T11:04:55.963Z,23.63
2023-08-29T11:07:26.303Z,22.24
2023-08-29T11:10:14.669Z,22.74
2023-08-29T11:13:01.681Z,23.58
2023-08-29T11:15:48.499Z,24.09
2023-08-29T11:18:20.236Z,24.12
2023-08-29T11:20:48.846Z,24.32
2023-08-29T11:23:17.737Z,24.09
2023-08-29T11:25:50.821Z,23.19
2023-08-29T11:28:19.757Z,23.77
2023-08-29T11:30:48.239Z,24.20
2023-08-29T11:33:16.725Z,23.74
2023-08-29T11:35:45.104Z,23.98
2023-08-29T11:38:13.504Z,23.99
2023-08-29T11:40:47.470Z,23.87
2023-08-29T11:44:04.202Z,22.94
2023-08-29T11:46:19.808Z,22.85
2023-08-29T11:48:48.453Z,23.33
2023-08-29T11:51:16.783Z,22.87
2023-08-29T11:53:45.185Z,22.52
2023-08-29T11:56:13.629Z,22.61
2023-08-29T11:58:42.725Z,22.64
2023-08-29T12:01:12.073Z,23.21
2023-08-29T12:03:40.753Z,23.97
2023-08-29T12:06:13.317Z,22.52
2023-08-29T12:08:45.579Z,23.71
2023-08-29T12:11:16.785Z,22.66
2023-08-29T12:13:59.534Z,22.60
2023-08-29T12:16:29.644Z,23.11
2023-08-29T12:19:06.033Z,22.96
2023-08-29T12:21:34.412Z,23.32
2023-08-29T12:24:12.486Z,23.79
2023-08-29T12:26:40.971Z,23.77
2023-08-29T12:29:09.399Z,24.27
2023-08-29T12:31:37.724Z,23.86
2023-08-29T12:34:06.083Z,22.85
2023-08-29T12:36:34.547Z,22.63
2023-08-29T12:39:04.216Z,23.48
2023-08-29T12:41:32.619Z,23.94
2023-08-29T12:44:01.026Z,24.68
2023-08-29T12:46:31.725Z,24.96
2023-08-29T12:49:00.203Z,24.39
2023-08-29T12:51:28.563Z,24.35
2023-08-29T12:53:56.886Z,24.51
2023-08-29T12:56:25.282Z,25.05
2023-08-29T12:58:54.252Z,25.34
2023-08-29T13:01:24.267Z,25.18
2023-08-29T13:03:52.733Z,24.94
2023-08-29T13:06:22.509Z,25.26
2023-08-29T13:08:53.317Z,24.99
2023-08-29T13:11:21.737Z,22.71
2023-08-29T13:13:50.111Z,24.06
2023-08-29T13:16:19.062Z,23.99
2023-08-29T13:18:47.795Z,24.52
2023-08-29T13:21:16.141Z,24.73
2023-08-29T13:23:44.514Z,24.42
2023-08-29T13:26:12.902Z,24.75
2023-08-29T13:28:41.232Z,24.12
2023-08-29T13:31:09.615Z,24.61
2023-08-29T13:33:37.994Z,25.15
2023-08-29T13:36:06.851Z,25.63
2023-08-29T13:38:35.195Z,25.39
2023-08-29T13:41:03.562Z,25.00
2023-08-29T13:43:31.924Z,25.41
2023-08-29T13:46:00.838Z,23.72
2023-08-29T13:48:29.402Z,24.41
2023-08-29T13:50:58.374Z,25.11
2023-08-29T13:53:26.730Z,25.35
2023-08-29T13:55:55.288Z,25.08
2023-08-29T13:58:23.662Z,23.88
2023-08-29T14:00:52.051Z,24.12
2023-08-29T14:03:33.239Z,24.47
2023-08-29T14:06:01.994Z,23.53
2023-08-29T14:08:30.466Z,22.72
2023-08-29T14:11:06.511Z,21.50
2023-08-29T14:13:37.315Z,21.90
2023-08-29T14:16:05.817Z,22.75
2023-08-29T14:18:37.357Z,23.74
2023-08-29T14:21:05.699Z,24.21
2023-08-29T14:23:34.013Z,24.45
2023-08-29T14:26:02.915Z,23.89
2023-08-29T14:28:31.437Z,24.25
2023-08-29T14:31:00.139Z,23.30
2023-08-29T14:33:28.548Z,22.84
2023-08-29T14:35:57.440Z,23.34
2023-08-29T14:38:25.856Z,22.15
2023-08-29T14:40:54.220Z,22.23
2023-08-29T14:43:22.649Z,22.18
2023-08-29T14:45:50.992Z,21.75
2023-08-29T14:48:19.328Z,22.35
2023-08-29T14:50:47.730Z,21.71
2023-08-29T14:53:16.064Z,22.32
2023-08-29T14:55:44.440Z,22.14
2023-08-29T14:58:12.827Z,22.12
2023-08-29T15:00:43.464Z,22.76
2023-08-29T15:03:13.971Z,21.45
2023-08-29T15:05:42.547Z,21.09
2023-08-29T15:08:10.895Z,20.94
2023-08-29T15:10:39.224Z,21.30
2023-08-29T15:13:08.504Z,21.57
2023-08-29T15:15:38.472Z,21.22
2023-08-29T15:18:08.211Z,20.91
2023-08-29T15:20:39.679Z,21.74
2023-08-29T15:23:08.846Z,22.42
2023-08-29T15:25:37.381Z,22.34
2023-08-29T15:28:06.126Z,22.58
2023-08-29T15:30:34.904Z,22.10
2023-08-29T15:33:03.471Z,21.51
2023-08-29T15:35:31.909Z,20.11
2023-08-29T15:38:00.375Z,20.17
2023-08-29T15:40:28.955Z,19.88
2023-08-29T15:42:58.382Z,21.00
2023-08-29T15:45:26.972Z,21.43
2023-08-29T15:47:56.489Z,21.33
2023-08-29T15:50:25.867Z,22.26
2023-08-29T15:52:54.257Z,22.13
2023-08-29T15:55:22.639Z,21.91
2023-08-29T15:57:51.368Z,21.84
2023-08-29T16:00:20.913Z,21.73
2023-08-29T16:02:50.158Z,21.10
2023-08-29T16:05:19.900Z,21.01
2023-08-29T16:07:49.895Z,21.27
2023-08-29T16:10:18.380Z,21.21
2023-08-29T16:12:47.386Z,21.52
2023-08-29T16:15:17.541Z,22.05
2023-08-29T16:17:46.272Z,21.33
2023-08-29T16:20:15.964Z,21.03
2023-08-29T16:22:45.469Z,21.29
2023-08-29T16:25:13.852Z,21.85
2023-08-29T16:27:42.457Z,21.76
2023-08-29T16:30:11.975Z,21.58
2023-08-29T16:32:41.542Z,21.51
2023-08-29T16:35:10.011Z,21.48
2023-08-29T16:37:38.702Z,21.01
2023-08-29T16:40:07.648Z,20.92
2023-08-29T16:42:36.193Z,21.19
2023-08-29T16:45:09.376Z,21.76
2023-08-29T16:47:37.954Z,22.06
2023-08-29T16:50:06.718Z,22.17
2023-08-29T16:52:35.064Z,22.39
2023-08-29T16:55:04.191Z,21.81
2023-08-29T16:57:32.747Z,21.83
2023-08-29T17:00:03.566Z,21.92
2023-08-29T17:02:32.860Z,22.31
2023-08-29T17:05:01.408Z,22.52
2023-08-29T17:07:29.855Z,22.66
2023-08-29T17:09:58.290Z,22.69
2023-08-29T17:12:26.664Z,22.36
2023-08-29T17:14:55.040Z,22.50
2023-08-29T17:17:23.515Z,22.88
2023-08-29T17:19:51.959Z,23.04
2023-08-29T17:22:20.293Z,23.05
2023-08-29T17:24:48.705Z,22.62
2023-08-29T17:27:17.860Z,22.20
2023-08-29T17:29:46.266Z,22.52
2023-08-29T17:32:15.486Z,22.91
2023-08-29T17:34:44.842Z,23.11
2023-08-29T17:37:13.210Z,23.21
2023-08-29T17:39:41.666Z,23.14
2023-08-29T17:42:10.072Z,23.32
2023-08-29T17:44:38.593Z,23.34
2023-08-29T17:47:07.342Z,23.12
2023-08-29T17:49:35.724Z,22.76
2023-08-29T17:52:04.255Z,22.94
2023-08-29T17:54:32.738Z,22.82
2023-08-29T17:57:01.126Z,22.57
2023-08-29T17:59:29.480Z,22.52
2023-08-29T18:01:57.862Z,22.59
2023-08-29T18:04:26.221Z,22.48
2023-08-29T18:06:54.563Z,22.62
2023-08-29T18:09:23.032Z,22.65
2023-08-29T18:11:51.469Z,22.86
2023-08-29T18:14:19.819Z,22.58
2023-08-29T18:16:49.573Z,22.24
2023-08-29T18:19:18.159Z,22.35
2023-08-29T18:21:46.654Z,22.04
2023-08-29T18:24:15.314Z,21.89
2023-08-29T18:26:43.637Z,22.25
2023-08-29T18:29:12.006Z,22.46
2023-08-29T18:31:40.732Z,22.30
2023-08-29T18:34:09.126Z,22.26
2023-08-29T18:36:39.539Z,22.23
2023-08-29T18:39:09.029Z,22.08
2023-08-29T18:41:37.469Z,22.01
2023-08-29T18:44:05.855Z,21.80
2023-08-29T18:46:34.187Z,21.91
2023-08-29T18:49:02.564Z,21.82
2023-08-29T18:51:30.892Z,21.82
2023-08-29T18:53:59.346Z,21.87
2023-08-29T18:56:27.756Z,21.98
2023-08-29T18:58:56.227Z,22.14
2023-08-29T19:01:24.600Z,22.11
2023-08-29T19:03:53.214Z,22.21
2023-08-29T19:06:21.717Z,22.15
2023-08-29T19:08:51.332Z,22.23
2023-08-29T19:11:19.690Z,22.28
2023-08-29T19:13:48.190Z,22.27
2023-08-29T19:16:16.572Z,22.26
2023-08-29T19:18:45.463Z,22.16
2023-08-29T19:21:13.860Z,22.10
2023-08-29T19:23:42.310Z,22.07
2023-08-29T19:26:10.703Z,22.15
2023-08-29T19:28:39.154Z,22.16
2023-08-29T19:31:07.575Z,22.17
2023-08-29T19:33:35.994Z,22.22
2023-08-29T19:36:11.645Z,22.26
2023-08-29T19:38:41.356Z,22.22
2023-08-29T19:41:10.348Z,22.26
2023-08-29T19:43:38.747Z,22.20
2023-08-29T19:46:07.339Z,22.10
2023-08-29T19:48:35.761Z,22.11
2023-08-29T19:51:05.088Z,22.04
2023-08-29T19:53:36.591Z,22.00
2023-08-29T19:56:07.133Z,21.90
2023-08-29T19:58:35.974Z,21.88
2023-08-29T20:01:05.095Z,21.83
2023-08-29T20:03:33.617Z,21.78
2023-08-29T20:06:02.059Z,21.82
2023-08-29T20:08:30.374Z,21.65
2023-08-29T20:10:58.899Z,21.62
2023-08-29T20:13:27.530Z,21.48
2023-08-29T20:15:56.047Z,21.34
2023-08-29T20:18:25.242Z,21.26
2023-08-29T20:20:54.143Z,21.28
2023-08-29T20:23:22.953Z,21.29
2023-08-29T20:25:52.907Z,21.32
2023-08-29T20:28:21.726Z,21.30
2023-08-29T20:30:56.318Z,21.23
2023-08-29T20:33:24.846Z,21.19
2023-08-29T20:35:53.242Z,21.05
2023-08-29T20:38:22.286Z,21.06
2023-08-29T20:40:50.676Z,21.09
2023-08-29T20:43:19.152Z,21.10
2023-08-29T20:45:47.492Z,21.15
2023-08-29T20:48:17.052Z,21.11
2023-08-29T20:50:47.911Z,20.99
2023-08-29T20:53:16.412Z,21.00
2023-08-29T20:55:44.999Z,21.01
2023-08-29T20:58:13.410Z,21.05
2023-08-29T21:00:42.380Z,21.12
2023-08-29T21:03:11.003Z,21.13
2023-08-29T21:05:39.389Z,21.14
2023-08-29T21:08:08.105Z,21.05
2023-08-29T21:10:37.093Z,21.03
2023-08-29T21:13:05.526Z,20.98
2023-08-29T21:15:39.127Z,20.98
2023-08-29T21:18:07.897Z,20.92
2023-08-29T21:20:38.620Z,20.84
2023-08-29T21:23:07.371Z,20.76
2023-08-29T21:25:35.687Z,20.72
2023-08-29T21:28:04.481Z,20.77
2023-08-29T21:30:33.052Z,20.73
2023-08-29T21:33:01.482Z,20.74
2023-08-29T21:35:29.855Z,20.71
2023-08-29T21:37:58.190Z,20.72
2023-08-29T21:40:26.512Z,20.78
2023-08-29T21:42:54.880Z,20.83
2023-08-29T21:45:23.225Z,20.92
2023-08-29T21:47:53.228Z,20.90
2023-08-29T21:50:21.721Z,20.89
2023-08-29T21:52:50.090Z,20.89
2023-08-29T21:55:18.518Z,20.83
2023-08-29T21:57:46.898Z,20.79
2023-08-29T22:00:16.743Z,20.80
2023-08-29T22:02:45.283Z,20.21
2023-08-29T22:05:13.826Z,20.35
2023-08-29T22:07:42.216Z,20.49
2023-08-29T22:10:10.845Z,20.50
2023-08-29T22:12:40.696Z,20.52
2023-08-29T22:15:09.837Z,20.59
2023-08-29T22:17:38.716Z,20.61
2023-08-29T22:20:07.683Z,20.58
2023-08-29T22:22:36.724Z,20.48
2023-08-29T22:25:05.324Z,20.46
2023-08-29T22:27:33.674Z,20.43
2023-08-29T22:30:02.068Z,20.35
2023-08-29T22:32:30.581Z,20.38
2023-08-29T22:34:59.431Z,20.45
2023-08-29T22:37:27.774Z,20.39
2023-08-29T22:39:56.122Z,20.37
2023-08-29T22:42:24.500Z,20.40
2023-08-29T22:44:52.849Z,20.34
2023-08-29T22:47:21.246Z,20.34
2023-08-29T22:49:49.667Z,20.40
2023-08-29T22:52:19.050Z,20.45
2023-08-29T22:54:47.423Z,20.48
2023-08-29T22:57:17.485Z,20.43
2023-08-29T22:59:45.958Z,20.45
2023-08-29T23:02:14.632Z,20.43
2023-08-29T23:04:43.387Z,20.42
2023-08-29T23:07:12.391Z,20.51
2023-08-29T23:09:42.710Z,20.54
2023-08-29T23:12:11.094Z,20.53
2023-08-29T23:14:39.473Z,20.51
2023-08-29T23:17:09.736Z,20.51
2023-08-29T23:19:38.234Z,20.49
2023-08-29T23:22:07.107Z,20.39
2023-08-29T23:24:35.466Z,20.21
2023-08-29T23:27:06.742Z,20.25
2023-08-29T23:29:37.207Z,20.28
2023-08-29T23:32:06.116Z,20.25
2023-08-29T23:34:34.430Z,20.26
2023-08-29T23:37:02.914Z,20.24
2023-08-29T23:39:31.372Z,20.21
2023-08-29T23:42:01.128Z,20.17
2023-08-29T23:44:29.735Z,20.17
2023-08-29T23:46:58.487Z,20.14
2023-08-29T23:49:28.387Z,20.16
2023-08-29T23:51:56.764Z,20.08
2023-08-29T23:54:28.234Z,20.14
2023-08-29T23:56:56.805Z,20.09
2023-08-29T23:59:25.307Z,20.07
